Poplar Arrow — C6TQ3 — position and weather

sailwx.info

Track history (hours):
 
Tides and Currents Weather Stations Pressure Air Temp Water Temp Dewpoint Dewpoint Depression Visibility Wind Speed Wind Dir Waves Ship Positions

Poplar Arrow

Last reported at 2015-Apr-17 10:00 UTC. Time now 2015-Apr-18 23:33 UTC.
Position N 41°18' W 009°48'.

Length 190 m; draft 7 m.

Type: Cargo ship. MMSI: 311744000.

Wind from 200 at 12 knots

Waves 2.0 meters (7 feet), 9 second period

Barometer 1019.6 mb
Air temperature 14.0 ° C
Visibility: greater than 10.8 NM
Dewpoint 10.2 ° C
Water temperature 15.0 ° C

Date/timePositionNaut miles runAvg speedWind from/ knotsBaromVisibWave heightAir tempDewpointWater temp
2015-Apr-17 10:00N 41°18' W 009°48'6613.2 200 / 121019.610.8 2.014.010.215.0
2015-Apr-17 05:00N 40°12' W 009°48'5210.9 300 / 141019.6 5.4 1.514.012.214.0
2015-Apr-17 00:15N 39°20' W 009°51'812.0
2015-Apr-16 23:33N 39°12' W 009°51'1212.3
2015-Apr-16 22:33N 38°60' W 009°51'1212.3
2015-Apr-16 21:33N 38°47' W 009°52'1211.6
2015-Apr-16 20:33N 38°36' W 009°49'1211.5
2015-Apr-16 19:33N 38°25' W 009°46'1111.3
2015-Apr-16 18:33N 38°14' W 009°43'1211.9
2015-Apr-16 17:33N 38°02' W 009°39'1212.0
2015-Apr-16 16:32N 37°50' W 009°36'1111.3
2015-Apr-16 15:33N 37°40' W 009°32'7112.7
2015-Apr-16 10:00N 36°36' W 008°54'510.0 310 / 101020.110.8 17.013.517.0
2015-Apr-16 09:32N 36°41' W 008°54'1111.6
2015-Apr-16 08:33N 36°37' W 008°40'1311.7
2015-Apr-16 07:26N 36°33' W 008°25'4212.2
2015-Apr-16 04:00N 36°18' W 007°36'9912.5 270 / 151016.3 5.4 2.016.512.914.6
2015-Apr-15 20:05N 35°58' W 005°36'711.7
2015-Apr-15 19:32N 35°60' W 005°29'1111.7
2015-Apr-15 18:33N 36°03' W 005°15'12014.0
2015-Apr-15 10:00N 36°18' W 002°48'10312.0 200 / 21018.6 2.2 1.015.014.116.0
2015-Apr-15 01:26N 36°38' W 000°43'1111.9
2015-Apr-15 00:28N 36°38' W 000°29'1112.1
2015-Apr-14 23:32N 36°40' W 000°15'1212.3
2015-Apr-14 22:33N 36°42' E 000°00'1212.0
2015-Apr-14 21:31N 36°44' E 000°16'1312.5
2015-Apr-14 20:30N 36°45' E 000°31'1312.7
2015-Apr-14 19:30N 36°47' E 000°47'1212.9
2015-Apr-14 18:32N 36°49' E 001°02'1312.7
2015-Apr-14 17:33N 36°51' E 001°18'1312.9
2015-Apr-14 16:33N 36°53' E 001°34'1312.5
2015-Apr-14 15:33N 36°55' E 001°49'1312.7
2015-Apr-14 14:33N 36°57' E 002°05'1313.4
2015-Apr-14 13:33N 36°59' E 002°21'1312.9
2015-Apr-14 12:34N 37°01' E 002°37'1212.4
2015-Apr-14 11:33N 37°02' E 002°53'1612.5
2015-Apr-14 10:18N 37°05' E 003°12'1112.5
2015-Apr-14 09:28N 37°06' E 003°25'1112.1
2015-Apr-14 08:33N 37°08' E 003°39'1312.7
2015-Apr-14 07:33N 37°10' E 003°55'1313.0
2015-Apr-14 06:33N 37°12' E 004°11'1713.0
2015-Apr-14 05:13N 37°14' E 004°32'1012.6
2015-Apr-14 04:25N 37°16' E 004°45'1112.7
2015-Apr-14 03:31N 37°17' E 004°59'2512.5
2015-Apr-14 01:33N 37°22' E 005°29'1312.8
2015-Apr-14 00:34N 37°23' E 005°45'1312.8
2015-Apr-13 23:33N 37°25' E 006°01'1312.9
2015-Apr-13 22:34N 37°27' E 006°17'1118.6
2015-Apr-13 22:00N 37°24' E 006°30'813.4 130 / 171028.410.8 1.016.011.416.0
2015-Apr-13 21:24N 37°29' E 006°37'2412.6
2015-Apr-13 19:29N 37°33' E 007°07'1312.3
2015-Apr-13 18:27N 37°35' E 007°24'1312.5
2015-Apr-13 17:25N 37°37' E 007°40'7212.2
2015-Apr-13 11:33N 37°43' E 009°09'7012.6
2015-Apr-13 06:00N 37°30' E 010°36'3111.0 070 / 101028.1 5.4 0.515.113.115.0
2015-Apr-13 03:08N 37°26' E 011°15'711.7
2015-Apr-13 02:33N 37°22' E 011°23'1221.0
2015-Apr-13 02:00N 37°12' E 011°30'1910.9 320 / 71028.6 5.4 0.516.012.416.0
2015-Apr-13 00:13N 37°08' E 011°54'3512.3
2015-Apr-12 21:21N 36°55' E 012°35'1212.3
2015-Apr-12 20:24N 36°50' E 012°49'1112.3
2015-Apr-12 19:32N 36°47' E 013°01'2113.9
2015-Apr-12 18:00N 36°36' E 013°24'2911.6 290 / 31025.8 5.4 0.515.011.315.0
2015-Apr-12 15:31N 36°29' E 013°59'1712.0
2015-Apr-12 14:07N 36°24' E 014°18'755.8
2015-Apr-12 14:00N 36°18' E 014°24'710.7 250 / 81028.7 5.4 0.517.011.717.0
2015-Apr-12 13:22N 36°23' E 014°30'12811.3
2015-Apr-12 02:00N 37°42' E 016°36'4611.5 230 / 151027.7 5.4 0.513.1 9.013.0
2015-Apr-11 22:00N 38°18' E 017°12'5611.3 20.0 12.0
2015-Apr-11 17:00N 39°00' E 018°00'3112.6 210 / 201025.9 5.4 1.015.311.416.0
2015-Apr-11 14:32N 39°25' E 018°24'2711.6
2015-Apr-11 12:14N 39°49' E 018°37'2612.1
2015-Apr-11 10:04N 40°16' E 018°39'812.2
2015-Apr-11 09:23N 40°23' E 018°33'29012.4
2015-Apr-10 10:00N 43°54' E 014°06'5210.3 140 / 111028.3 5.4 1.014.0 8.012.0
2015-Apr-10 05:00N 44°36' E 013°24'4515.1 140 / 91028.3 5.4 1.011.0 6.814.0
2015-Apr-10 02:00N 45°18' E 013°00'   200 / 51026.8 5.4 0.510.3 5.310.1
Track history (hours):
 
Tides and Currents Weather Stations Pressure Air Temp Water Temp Dewpoint Dewpoint Depression Visibility Wind Speed Wind Dir Waves Ship Positions

Poplar Arrow

Last reported at 2015-Apr-17 10:00 UTC. Time now 2015-Apr-18 23:33 UTC.
Position N 41°18' W 009°48'.

Length 190 m; draft 7 m.

Type: Cargo ship. MMSI: 311744000.

Wind from 200 at 12 knots

Waves 2.0 meters (7 feet), 9 second period

Barometer 1019.6 mb
Air temperature 14.0 ° C
Visibility: greater than 10.8 NM
Dewpoint 10.2 ° C
Water temperature 15.0 ° C

Date/timePositionNaut miles runAvg speedWind from/ knotsBaromVisibWave heightAir tempDewpointWater temp
2015-Apr-17 10:00N 41°18' W 009°48'6613.2 200 / 121019.610.8 2.014.010.215.0
2015-Apr-17 05:00N 40°12' W 009°48'5210.9 300 / 141019.6 5.4 1.514.012.214.0
2015-Apr-17 00:15N 39°20' W 009°51'812.0
2015-Apr-16 23:33N 39°12' W 009°51'1212.3
2015-Apr-16 22:33N 38°60' W 009°51'1212.3
2015-Apr-16 21:33N 38°47' W 009°52'1211.6
2015-Apr-16 20:33N 38°36' W 009°49'1211.5
2015-Apr-16 19:33N 38°25' W 009°46'1111.3
2015-Apr-16 18:33N 38°14' W 009°43'1211.9
2015-Apr-16 17:33N 38°02' W 009°39'1212.0
2015-Apr-16 16:32N 37°50' W 009°36'1111.3
2015-Apr-16 15:33N 37°40' W 009°32'7112.7
2015-Apr-16 10:00N 36°36' W 008°54'510.0 310 / 101020.110.8 17.013.517.0
2015-Apr-16 09:32N 36°41' W 008°54'1111.6
2015-Apr-16 08:33N 36°37' W 008°40'1311.7
2015-Apr-16 07:26N 36°33' W 008°25'4212.2
2015-Apr-16 04:00N 36°18' W 007°36'9912.5 270 / 151016.3 5.4 2.016.512.914.6
2015-Apr-15 20:05N 35°58' W 005°36'711.7
2015-Apr-15 19:32N 35°60' W 005°29'1111.7
2015-Apr-15 18:33N 36°03' W 005°15'12014.0
2015-Apr-15 10:00N 36°18' W 002°48'10312.0 200 / 21018.6 2.2 1.015.014.116.0
2015-Apr-15 01:26N 36°38' W 000°43'1111.9
2015-Apr-15 00:28N 36°38' W 000°29'1112.1
2015-Apr-14 23:32N 36°40' W 000°15'1212.3
2015-Apr-14 22:33N 36°42' E 000°00'1212.0
2015-Apr-14 21:31N 36°44' E 000°16'1312.5
2015-Apr-14 20:30N 36°45' E 000°31'1312.7
2015-Apr-14 19:30N 36°47' E 000°47'1212.9
2015-Apr-14 18:32N 36°49' E 001°02'1312.7
2015-Apr-14 17:33N 36°51' E 001°18'1312.9
2015-Apr-14 16:33N 36°53' E 001°34'1312.5
2015-Apr-14 15:33N 36°55' E 001°49'1312.7
2015-Apr-14 14:33N 36°57' E 002°05'1313.4
2015-Apr-14 13:33N 36°59' E 002°21'1312.9
2015-Apr-14 12:34N 37°01' E 002°37'1212.4
2015-Apr-14 11:33N 37°02' E 002°53'1612.5
2015-Apr-14 10:18N 37°05' E 003°12'1112.5
2015-Apr-14 09:28N 37°06' E 003°25'1112.1
2015-Apr-14 08:33N 37°08' E 003°39'1312.7
2015-Apr-14 07:33N 37°10' E 003°55'1313.0
2015-Apr-14 06:33N 37°12' E 004°11'1713.0
2015-Apr-14 05:13N 37°14' E 004°32'1012.6
2015-Apr-14 04:25N 37°16' E 004°45'1112.7
2015-Apr-14 03:31N 37°17' E 004°59'2512.5
2015-Apr-14 01:33N 37°22' E 005°29'1312.8
2015-Apr-14 00:34N 37°23' E 005°45'1312.8
2015-Apr-13 23:33N 37°25' E 006°01'1312.9
2015-Apr-13 22:34N 37°27' E 006°17'1118.6
2015-Apr-13 22:00N 37°24' E 006°30'813.4 130 / 171028.410.8 1.016.011.416.0
2015-Apr-13 21:24N 37°29' E 006°37'2412.6
2015-Apr-13 19:29N 37°33' E 007°07'1312.3
2015-Apr-13 18:27N 37°35' E 007°24'1312.5
2015-Apr-13 17:25N 37°37' E 007°40'7212.2
2015-Apr-13 11:33N 37°43' E 009°09'7012.6
2015-Apr-13 06:00N 37°30' E 010°36'3111.0 070 / 101028.1 5.4 0.515.113.115.0
2015-Apr-13 03:08N 37°26' E 011°15'711.7
2015-Apr-13 02:33N 37°22' E 011°23'1221.0
2015-Apr-13 02:00N 37°12' E 011°30'1910.9 320 / 71028.6 5.4 0.516.012.416.0
2015-Apr-13 00:13N 37°08' E 011°54'3512.3
2015-Apr-12 21:21N 36°55' E 012°35'1212.3
2015-Apr-12 20:24N 36°50' E 012°49'1112.3
2015-Apr-12 19:32N 36°47' E 013°01'2113.9
2015-Apr-12 18:00N 36°36' E 013°24'2911.6 290 / 31025.8 5.4 0.515.011.315.0
2015-Apr-12 15:31N 36°29' E 013°59'1712.0
2015-Apr-12 14:07N 36°24' E 014°18'755.8
2015-Apr-12 14:00N 36°18' E 014°24'710.7 250 / 81028.7 5.4 0.517.011.717.0
2015-Apr-12 13:22N 36°23' E 014°30'12811.3
2015-Apr-12 02:00N 37°42' E 016°36'4611.5 230 / 151027.7 5.4 0.513.1 9.013.0
2015-Apr-11 22:00N 38°18' E 017°12'5611.3 20.0 12.0
2015-Apr-11 17:00N 39°00' E 018°00'3112.6 210 / 201025.9 5.4 1.015.311.416.0
2015-Apr-11 14:32N 39°25' E 018°24'2711.6
2015-Apr-11 12:14N 39°49' E 018°37'2612.1
2015-Apr-11 10:04N 40°16' E 018°39'812.2
2015-Apr-11 09:23N 40°23' E 018°33'29012.4
2015-Apr-10 10:00N 43°54' E 014°06'5210.3 140 / 111028.3 5.4 1.014.0 8.012.0
2015-Apr-10 05:00N 44°36' E 013°24'4515.1 140 / 91028.3 5.4 1.011.0 6.814.0
2015-Apr-10 02:00N 45°18' E 013°00'   200 / 51026.8 5.4 0.510.3 5.310.1

Dump ship's entire track history